Fort MacKay, Canada
Current Conditions -  °F | °C
As of 12:00 AM on Thursday 23 Oct 2014 (Local Time) from CYMM Reporting Station
Broken Clouds Broken Clouds  
Wind Chill: 42°   Ceiling: 19000
Heat Index: 46°   Visibility: 9mi
Dew Point: 36°   Wind: 9mph
Humidity: 66%   Direction: 120°ESE
Pressure: 29.59"   Gusts: NA
Location:  57°N, 111.48°W
Report Text: CYMM 230600Z AUTO 12008KT 9SM BKN190 BKN230 08/02 A2959 RMK SLP033
Loading
Personal Weather Stations






























Interactive Weather Map
Tropical Storm Tracking
New forecast layout! Learn more

10-Day Weather Forecast

Advertisements
Track Severe Weather on mobile